Time;durP1;ratioP1;P1;durP2;ratioP2;P2;SDS_P1;SDS_P2;PMS_P1;PMS_P2;Temp;Humidity;BMP_temperature;BMP_pressure;BME280_temperature;BME280_humidity;BME280_pressure;Samples;Min_cycle;Max_cycle;Signal;HPM_P1;HPM_P2
2021/08/03 00:02:24;;;;;;;1.90;1.80;;;;;;;27.70;48.43;99404.05;1778597;79;21037;-68
2021/08/03 00:04:55;;;;;;;2.10;1.90;;;;;;;27.71;48.40;99402.39;1776094;79;21759;-65
2021/08/03 00:07:22;;;;;;;1.80;1.70;;;;;;;27.72;48.44;99401.30;1762629;79;21211;-67
2021/08/03 00:09:49;;;;;;;1.80;1.67;;;;;;;27.73;48.38;99404.84;1775689;79;21055;-65
2021/08/03 00:12:17;;;;;;;3.42;2.00;;;;;;;27.75;48.36;99402.62;1746023;80;21162;-68
2021/08/03 00:14:49;;;;;;;1.62;1.52;;;;;;;27.76;48.30;99407.80;1783721;79;21058;-67
2021/08/03 00:17:17;;;;;;;;;;;;;;;27.76;48.26;99405.08;1768474;79;21928;-68
2021/08/03 00:19:45;;;;;;;1.82;1.62;;;;;;;27.78;48.27;99400.70;1785077;80;20941;-67
2021/08/03 00:22:12;;;;;;;2.52;1.70;;;;;;;27.72;48.36;99410.02;1772287;79;21036;-66
2021/08/03 00:24:41;;;;;;;1.60;1.50;;;;;;;27.74;48.32;99411.91;1766446;80;21071;-66
2021/08/03 00:27:07;;;;;;;1.90;1.70;;;;;;;27.74;48.33;99409.17;1744829;79;21068;-66
2021/08/03 00:29:35;;;;;;;1.60;1.50;;;;;;;27.77;48.23;99414.06;1783826;79;21200;-66
2021/08/03 00:32:03;;;;;;;2.15;1.80;;;;;;;27.78;48.18;99406.16;1779835;79;21108;-66
2021/08/03 00:34:30;;;;;;;2.92;1.70;;;;;;;27.79;48.11;99411.86;1793507;78;21041;-67
2021/08/03 00:36:57;;;;;;;2.02;1.70;;;;;;;27.79;48.09;99411.30;1781931;78;21173;-66
2021/08/03 00:39:25;;;;;;;1.62;1.52;;;;;;;27.80;48.08;99410.77;1785833;79;21064;-67
2021/08/03 00:41:58;;;;;;;2.02;1.60;;;;;;;27.81;47.96;99410.45;1782307;79;22334;-68
2021/08/03 00:44:46;;;;;;;1.85;1.75;;;;;;;27.82;47.96;99409.92;1762304;79;21017;-71
2021/08/03 00:47:16;;;;;;;1.87;1.62;;;;;;;27.83;47.93;99410.17;1760012;79;21038;-65
2021/08/03 00:49:42;;;;;;;1.77;1.65;;;;;;;27.82;47.90;99408.56;1777933;79;21085;-65
2021/08/03 00:52:12;;;;;;;1.75;1.65;;;;;;;27.82;47.80;99402.55;1770492;79;21079;-66
2021/08/03 00:54:41;;;;;;;1.37;1.27;;;;;;;27.85;47.79;99402.50;1757850;79;21345;-66
2021/08/03 00:57:09;;;;;;;1.85;1.70;;;;;;;27.85;47.80;99403.34;1772592;79;21679;-66
2021/08/03 00:59:36;;;;;;;1.90;1.47;;;;;;;27.87;47.76;99415.87;1771405;79;21125;-65
2021/08/03 01:02:05;;;;;;;1.90;1.70;;;;;;;27.87;47.69;99415.30;1765140;79;21067;-65
2021/08/03 01:04:33;;;;;;;1.90;1.70;;;;;;;27.88;47.68;99415.61;1768946;79;21070;-66
2021/08/03 01:07:10;;;;;;;1.60;1.50;;;;;;;27.89;47.66;99423.23;1776894;78;21009;-66
2021/08/03 01:09:48;;;;;;;1.57;1.47;;;;;;;27.89;47.64;99428.14;1771409;78;21609;-66
2021/08/03 01:12:56;;;;;;;3.08;1.82;;;;;;;27.91;47.64;99427.86;1789708;78;21062;-67
2021/08/03 01:15:47;;;;;;;1.60;1.50;;;;;;;27.91;47.64;99427.86;1641552;85;21400;-67
2021/08/03 01:18:36;;;;;;;3.08;1.60;;;;;;;27.90;47.64;99433.88;1760577;78;20993;-65
2021/08/03 01:21:44;;;;;;;1.82;1.60;;;;;;;27.89;47.63;99432.23;1751865;80;21549;-66
2021/08/03 01:24:52;;;;;;;1.62;1.52;;;;;;;27.88;47.58;99436.61;1771716;78;21017;-65
2021/08/03 01:27:42;;;;;;;2.40;1.95;;;;;;;27.88;47.58;99436.61;1769634;79;21252;-66
2021/08/03 01:30:09;;;;;;;1.80;1.70;;;;;;;27.85;47.62;99433.36;1771482;79;21043;-66
2021/08/03 01:32:36;;;;;;;1.67;1.57;;;;;;;27.85;47.64;99439.35;1769011;79;21143;-67
2021/08/03 01:35:03;;;;;;;1.80;1.60;;;;;;;27.86;47.66;99445.08;1757551;79;21851;-66
2021/08/03 01:37:31;;;;;;;1.98;1.87;;;;;;;27.87;47.57;99449.42;1770515;79;21088;-66
2021/08/03 01:40:03;;;;;;;1.87;1.70;;;;;;;27.88;47.54;99450.26;1744584;79;21120;-65
2021/08/03 01:42:30;;;;;;;1.85;1.75;;;;;;;27.88;47.52;99451.09;1761892;79;21100;-68
2021/08/03 01:44:57;;;;;;;1.80;1.70;;;;;;;27.90;47.45;99456.27;1767177;79;21216;-65
2021/08/03 01:47:25;;;;;;;2.10;1.65;;;;;;;27.91;47.39;99458.72;1765315;79;21904;-65
2021/08/03 01:49:51;;;;;;;2.02;1.75;;;;;;;27.91;47.36;99460.08;1775334;79;21080;-64
2021/08/03 01:52:18;;;;;;;2.75;1.87;;;;;;;27.93;47.33;99463.33;1773935;79;21180;-65
2021/08/03 01:54:47;;;;;;;2.10;1.90;;;;;;;27.94;47.28;99471.77;1777281;79;21090;-66
2021/08/03 01:57:15;;;;;;;2.55;1.98;;;;;;;27.95;47.22;99473.41;1780080;79;21037;-65
2021/08/03 01:59:43;;;;;;;1.75;1.65;;;;;;;27.95;47.13;99474.77;1777394;79;21176;-67
2021/08/03 02:02:10;;;;;;;2.05;1.80;;;;;;;27.95;47.14;99477.50;1751348;79;21073;-66
2021/08/03 02:04:38;;;;;;;2.20;2.00;;;;;;;27.96;47.03;99479.11;1757305;80;21019;-66
2021/08/03 02:07:05;;;;;;;2.98;2.02;;;;;;;27.96;47.02;99481.03;1788783;78;21090;-67
2021/08/03 02:09:35;;;;;;;1.80;1.70;;;;;;;27.97;47.01;99484.85;1794255;78;21072;-66
2021/08/03 02:12:03;;;;;;;1.77;1.67;;;;;;;27.97;47.00;99481.28;1762330;79;21197;-66
2021/08/03 02:14:29;;;;;;;1.85;1.75;;;;;;;27.97;46.89;99482.65;1776814;78;21129;-66
2021/08/03 02:17:00;;;;;;;2.58;2.10;;;;;;;27.97;46.90;99490.31;1762584;78;21021;-66
2021/08/03 02:19:29;;;;;;;2.00;1.90;;;;;;;27.98;46.88;99491.12;1768831;80;21382;-65
2021/08/03 02:22:06;;;;;;;1.85;1.75;;;;;;;27.99;46.78;99492.20;1769336;79;21523;-67
2021/08/03 02:24:34;;;;;;;1.82;1.67;;;;;;;27.97;46.76;99487.58;1790030;78;21138;-65
2021/08/03 02:27:01;;;;;;;4.42;2.25;;;;;;;27.96;46.74;99485.94;1785903;79;21001;-65
2021/08/03 02:29:31;;;;;;;2.00;1.87;;;;;;;27.98;46.67;99490.55;1791819;79;21014;-65
2021/08/03 02:32:05;;;;;;;2.60;1.90;;;;;;;28.00;46.59;99486.17;1779093;79;21090;-67
2021/08/03 02:34:52;;;;;;;2.55;1.87;;;;;;;27.99;46.64;99492.20;1785661;78;21132;-67
2021/08/03 02:37:22;;;;;;;2.30;2.10;;;;;;;27.99;46.65;99494.92;1759522;79;21106;-65
2021/08/03 02:39:50;;;;;;;2.40;2.20;;;;;;;27.99;46.65;99499.02;1751729;79;20985;-66
2021/08/03 02:42:16;;;;;;;2.08;1.90;;;;;;;27.98;46.59;99502.84;1764001;79;21103;-65
2021/08/03 02:44:44;;;;;;;2.30;2.10;;;;;;;28.00;46.55;99503.92;1772338;79;21080;-68
2021/08/03 02:47:25;;;;;;;2.35;2.15;;;;;;;28.00;46.58;99507.45;1780071;80;21605;-68
2021/08/03 02:49:52;;;;;;;1.77;1.67;;;;;;;28.00;46.55;99507.45;1779893;79;20997;-67
2021/08/03 02:52:18;;;;;;;2.02;1.92;;;;;;;28.00;46.51;99506.09;1765244;79;21540;-68
2021/08/03 02:54:49;;;;;;;2.02;1.90;;;;;;;28.01;46.51;99505.56;1767457;78;21064;-66
2021/08/03 02:57:16;;;;;;;2.00;1.90;;;;;;;28.02;46.45;99511.27;1764985;79;21114;-67
2021/08/03 02:59:49;;;;;;;2.00;1.90;;;;;;;28.00;46.49;99507.45;1770327;78;21100;-69
2021/08/03 03:02:17;;;;;;;2.08;1.90;;;;;;;28.01;46.42;99514.56;1774531;79;21127;-68
2021/08/03 03:04:55;;;;;;;4.55;2.20;;;;;;;28.02;46.44;99518.91;1758050;79;21098;-69
2021/08/03 03:07:37;;;;;;;2.30;2.10;;;;;;;28.01;46.52;99515.92;1769511;79;21145;-67
2021/08/03 03:10:07;;;;;;;2.10;1.90;;;;;;;28.03;46.42;99526.56;1789802;78;21136;-68
2021/08/03 03:12:35;;;;;;;2.00;1.90;;;;;;;28.02;46.42;99522.19;1760275;80;21057;-67
2021/08/03 03:15:05;;;;;;;2.55;1.90;;;;;;;28.01;46.46;99516.48;1753181;80;21110;-67
2021/08/03 03:17:34;;;;;;;2.17;1.72;;;;;;;28.01;46.40;99518.66;1795982;78;21021;-67
2021/08/03 03:20:05;;;;;;;2.17;2.08;;;;;;;28.01;46.52;99518.66;1799880;78;21538;-68
2021/08/03 03:22:39;;;;;;;2.10;2.00;;;;;;;28.02;46.41;99524.36;1795269;78;21040;-66
2021/08/03 03:25:08;;;;;;;2.40;2.20;;;;;;;28.03;46.41;99527.37;1795398;78;21101;-66
2021/08/03 03:27:35;;;;;;;2.60;2.30;;;;;;;28.03;46.50;99522.47;1790044;78;21172;-67
2021/08/03 03:30:03;;;;;;;2.22;2.00;;;;;;;28.03;46.56;99527.37;1790551;78;21063;-67
2021/08/03 03:32:31;;;;;;;2.77;2.58;;;;;;;28.04;46.44;99533.07;1797591;78;21161;-67
2021/08/03 03:34:58;;;;;;;2.12;1.85;;;;;;;28.06;46.44;99531.98;1809303;78;21319;-67
2021/08/03 03:37:28;;;;;;;2.20;2.00;;;;;;;28.06;46.40;99534.16;1792848;78;21034;-68
2021/08/03 03:39:56;;;;;;;2.42;1.98;;;;;;;28.06;46.33;99533.35;1755522;80;21791;-65
2021/08/03 03:42:31;;;;;;;4.20;2.30;;;;;;;28.08;46.33;99540.70;1762075;79;20994;-66
2021/08/03 03:44:59;;;;;;;1.95;1.85;;;;;;;28.09;46.31;99551.90;1773443;79;21073;-66
2021/08/03 03:47:30;;;;;;;1.95;1.82;;;;;;;28.08;46.27;99549.70;1760550;79;21084;-69
2021/08/03 03:50:12;;;;;;;2.17;1.95;;;;;;;28.10;46.30;99553.51;1770936;79;21137;-67
2021/08/03 03:52:43;;;;;;;2.20;2.10;;;;;;;28.10;46.21;99551.59;1764844;79;21924;-67
2021/08/03 03:55:11;;;;;;;2.20;2.00;;;;;;;28.10;46.27;99556.23;1750704;79;21004;-66
2021/08/03 03:57:38;;;;;;;2.00;1.90;;;;;;;28.10;46.26;99550.78;1748036;80;21041;-67
2021/08/03 04:00:07;;;;;;;2.35;2.15;;;;;;;28.11;46.29;99553.23;1754243;79;21140;-66
2021/08/03 04:02:35;;;;;;;2.52;2.33;;;;;;;28.12;46.26;99558.94;1759203;80;21502;-66
2021/08/03 04:05:04;;;;;;;3.22;2.25;;;;;;;28.14;46.22;99564.92;1768843;80;22050;-67
2021/08/03 04:07:32;;;;;;;2.55;2.12;;;;;;;28.15;46.15;99562.46;1796401;78;21565;-68
2021/08/03 04:10:08;;;;;;;2.00;1.80;;;;;;;28.16;46.23;99560.54;1756128;78;21068;-66
2021/08/03 04:12:35;;;;;;;2.22;2.02;;;;;;;28.18;46.23;99566.52;1777756;78;21142;-67
2021/08/03 04:15:05;;;;;;;2.22;2.08;;;;;;;28.18;46.31;99563.80;1768417;79;21465;-68
2021/08/03 04:17:34;;;;;;;2.40;2.20;;;;;;;28.19;46.25;99571.70;1770684;79;21139;-66
2021/08/03 04:20:03;;;;;;;2.05;1.92;;;;;;;28.21;46.41;99570.05;1760463;80;21057;-66
2021/08/03 04:22:30;;;;;;;2.92;2.30;;;;;;;28.22;46.31;99573.87;1775526;80;21068;-66
2021/08/03 04:24:56;;;;;;;2.35;2.17;;;;;;;28.23;46.33;99568.66;1764611;80;21115;-66
2021/08/03 04:27:23;;;;;;;2.12;2.02;;;;;;;28.25;46.30;99567.00;1768615;79;21105;-66
2021/08/03 04:29:49;;;;;;;2.22;2.08;;;;;;;28.27;46.39;99565.35;1761072;80;21119;-66
2021/08/03 04:32:15;;;;;;;3.02;2.17;;;;;;;28.29;46.47;99569.97;1762843;79;21022;-66
2021/08/03 04:34:42;;;;;;;2.35;2.15;;;;;;;28.30;46.44;99572.95;1767443;79;21068;-66
2021/08/03 04:37:08;;;;;;;2.22;2.02;;;;;;;28.33;46.31;99571.02;1757067;79;21587;-67
2021/08/03 04:39:35;;;;;;;2.75;2.47;;;;;;;28.36;46.31;99575.91;1758528;79;21069;-66
2021/08/03 04:42:01;;;;;;;3.00;2.22;;;;;;;28.38;46.28;99576.43;1761385;79;22329;-67
2021/08/03 04:44:28;;;;;;;2.60;2.40;;;;;;;28.40;46.30;99575.59;1768817;79;21044;-67
2021/08/03 04:46:54;;;;;;;2.45;2.20;;;;;;;28.42;46.36;99580.20;1767657;80;21580;-67
2021/08/03 04:49:21;;;;;;;2.60;2.40;;;;;;;28.44;46.27;99577.44;1769934;79;21147;-67
2021/08/03 04:51:47;;;;;;;2.52;2.33;;;;;;;28.46;46.30;99583.17;1766683;79;21100;-65
2021/08/03 04:54:14;;;;;;;3.08;2.37;;;;;;;28.48;46.24;99582.33;1759775;79;21140;-66
2021/08/03 04:56:40;;;;;;;2.58;2.33;;;;;;;28.50;46.25;99581.48;1761131;79;21104;-67
2021/08/03 04:59:06;;;;;;;2.85;2.55;;;;;;;28.51;46.21;99583.96;1763057;79;21086;-66
2021/08/03 05:01:33;;;;;;;2.62;2.42;;;;;;;28.53;46.16;99583.13;1763496;79;21114;-66
2021/08/03 05:04:00;;;;;;;2.22;2.12;;;;;;;28.54;46.20;99592.13;1755537;80;21059;-67
2021/08/03 05:06:27;;;;;;;2.70;2.50;;;;;;;28.55;46.13;99586.38;1771075;79;21147;-66
2021/08/03 05:08:54;;;;;;;2.42;2.22;;;;;;;28.55;46.21;99583.64;1774271;79;21137;-66
2021/08/03 05:11:21;;;;;;;2.45;2.33;;;;;;;28.58;46.11;99582.23;1768575;79;21116;-66
2021/08/03 05:13:47;;;;;;;3.72;2.33;;;;;;;28.59;46.16;99582.51;1767951;79;21028;-65
2021/08/03 05:16:14;;;;;;;3.50;2.70;;;;;;;28.61;46.13;99580.30;1760387;79;21026;-67
2021/08/03 05:18:41;;;;;;;3.17;2.47;;;;;;;28.61;46.15;99581.66;1767102;79;21061;-65
2021/08/03 05:21:08;;;;;;;2.72;2.52;;;;;;;28.62;46.15;99581.91;1774785;79;21066;-67
2021/08/03 05:23:34;;;;;;;2.50;2.30;;;;;;;28.64;46.11;99583.80;1772831;79;21053;-67
2021/08/03 05:26:01;;;;;;;2.60;2.40;;;;;;;28.66;46.09;99587.61;1769768;79;21117;-65
2021/08/03 05:28:27;;;;;;;2.90;2.60;;;;;;;28.66;46.07;99584.31;1766153;79;21585;-67
2021/08/03 05:30:54;;;;;;;2.50;2.30;;;;;;;28.68;46.06;99583.47;1767428;79;21110;-67
2021/08/03 05:33:21;;;;;;;3.17;2.52;;;;;;;28.69;46.02;99582.94;1765629;79;21569;-66
2021/08/03 05:35:48;;;;;;;3.12;2.37;;;;;;;28.70;46.13;99585.34;1764968;80;21026;-67
2021/08/03 05:38:14;;;;;;;3.55;2.52;;;;;;;28.72;46.17;99592.70;1761430;79;21065;-66
2021/08/03 05:40:40;;;;;;;5.45;2.58;;;;;;;28.73;46.21;99592.98;1754859;79;21680;-66
2021/08/03 05:43:07;;;;;;;3.33;2.52;;;;;;;28.75;46.29;99589.95;1761968;79;21745;-66
2021/08/03 05:45:35;;;;;;;2.72;2.52;;;;;;;28.76;46.06;99586.94;1768427;79;21109;-67
2021/08/03 05:48:01;;;;;;;3.75;2.20;;;;;;;28.77;46.09;99590.48;1770946;79;21090;-67
2021/08/03 05:50:28;;;;;;;2.83;2.62;;;;;;;28.78;46.13;99587.98;1760666;79;21159;-68
2021/08/03 05:52:54;;;;;;;2.77;2.50;;;;;;;28.79;46.10;99587.70;1768894;79;21244;-64
2021/08/03 05:55:20;;;;;;;3.20;2.90;;;;;;;28.80;46.13;99591.23;1756291;79;21587;-66
2021/08/03 05:57:47;;;;;;;3.55;3.25;;;;;;;28.79;45.57;99593.17;1763433;79;21096;-64
2021/08/03 06:00:15;;;;;;;4.00;3.45;;;;;;;28.78;45.30;99602.49;1769379;79;21629;-65
2021/08/03 06:02:42;;;;;;;3.80;3.50;;;;;;;28.75;45.22;99608.53;1773960;79;21080;-65
2021/08/03 06:05:10;;;;;;;3.90;3.12;;;;;;;28.73;44.72;99611.30;1772091;79;21071;-66
2021/08/03 06:07:39;;;;;;;4.33;3.50;;;;;;;28.69;44.75;99605.61;1774267;79;21132;-69
2021/08/03 06:10:12;;;;;;;4.75;3.55;;;;;;;28.68;44.29;99611.36;1687098;81;21187;-70
2021/08/03 06:12:39;;;;;;;12.00;9.85;;;;;;;28.60;43.08;99608.71;1766047;79;21561;-70
2021/08/03 06:15:07;;;;;;;6.53;5.92;;;;;;;28.43;42.75;99620.91;1768202;79;21089;-66
2021/08/03 06:17:37;;;;;;;4.83;4.42;;;;;;;28.23;42.64;99622.47;1775192;79;21073;-67
2021/08/03 06:20:06;;;;;;;6.37;3.62;;;;;;;28.00;42.66;99623.48;1762913;79;21869;-68
2021/08/03 06:22:36;;;;;;;5.67;4.12;;;;;;;27.84;42.42;99628.80;1761821;79;21088;-70
2021/08/03 06:25:05;;;;;;;4.17;3.77;;;;;;;27.74;42.64;99630.22;1764681;79;21162;-70
2021/08/03 06:27:31;;;;;;;4.60;4.20;;;;;;;27.64;43.32;99631.95;1764127;79;20999;-68
2021/08/03 06:30:03;;;;;;;4.92;3.75;;;;;;;27.59;43.81;99630.61;1769413;78;22080;-71
2021/08/03 06:32:30;;;;;;;5.70;3.72;;;;;;;27.56;43.95;99633.09;1777927;79;21213;-68
2021/08/03 06:34:57;;;;;;;6.62;3.92;;;;;;;27.54;44.27;99636.09;1777031;79;21106;-69
2021/08/03 06:37:23;;;;;;;4.25;3.70;;;;;;;27.55;44.28;99639.10;1777260;79;21458;-69
2021/08/03 06:39:50;;;;;;;4.58;3.80;;;;;;;27.55;44.17;99640.47;1778705;79;21061;-69
2021/08/03 06:42:48;;;;;;;4.25;3.85;;;;;;;27.55;44.28;99648.66;1767356;79;21103;-69
2021/08/03 06:45:20;;;;;;;4.25;3.80;;;;;;;27.56;44.40;99645.37;1722710;79;21131;-69
2021/08/03 06:47:58;;;;;;;5.58;4.25;;;;;;;27.54;44.43;99648.38;1784881;78;21037;-68
2021/08/03 06:50:28;;;;;;;6.08;3.80;;;;;;;27.55;44.28;99650.02;1780057;79;21102;-71
2021/08/03 06:52:54;;;;;;;59.80;49.50;;;;;;;27.56;44.41;99653.55;1782449;79;21602;-69
2021/08/03 06:55:30;;;;;;;11.78;10.53;;;;;;;27.56;44.41;99648.09;1797539;79;21056;-72
2021/08/03 06:58:01;;;;;;;7.75;6.15;;;;;;;27.57;44.08;99651.91;1790466;78;21162;-71
2021/08/03 07:00:31;;;;;;;5.60;4.80;;;;;;;27.57;44.17;99653.27;1778655;79;21042;-70
2021/08/03 07:05:57;;;;;;;4.03;3.62;;;;;;;27.59;43.61;99652.44;1867829;75;22640;-71
2021/08/03 07:08:24;;;;;;;5.33;3.87;;;;;;;27.52;43.32;99656.03;1826622;77;20954;-70
2021/08/03 07:10:52;;;;;;;3.70;3.40;;;;;;;27.50;42.49;99657.42;1797034;77;21075;-70
2021/08/03 07:13:19;;;;;;;5.17;3.95;;;;;;;27.43;41.90;99661.28;1818864;77;21076;-70
2021/08/03 07:15:47;;;;;;;4.92;4.00;;;;;;;27.34;42.04;99657.51;1822929;77;21048;-72
2021/08/03 07:18:14;;;;;;;4.85;4.37;;;;;;;27.28;42.42;99657.83;1821577;77;20981;-71
2021/08/03 07:20:41;;;;;;;3.98;3.67;;;;;;;27.25;42.32;99659.19;1803290;78;21061;-72
2021/08/03 07:23:10;;;;;;;4.12;3.72;;;;;;;27.22;42.38;99653.72;1826845;77;21827;-73
2021/08/03 07:25:36;;;;;;;4.53;3.47;;;;;;;27.23;42.57;99654.53;1826166;77;21030;-71
2021/08/03 07:28:03;;;;;;;3.50;3.27;;;;;;;27.23;42.97;99653.97;1818656;77;21566;-70
2021/08/03 07:30:29;;;;;;;3.58;3.17;;;;;;;27.26;42.96;99657.55;1825262;77;21067;-68
2021/08/03 07:32:56;;;;;;;4.47;3.50;;;;;;;27.30;43.01;99661.09;1814885;77;21099;-69
2021/08/03 07:35:22;;;;;;;3.60;3.30;;;;;;;27.34;42.79;99662.16;1813180;77;21102;-67
2021/08/03 07:37:49;;;;;;;3.67;3.02;;;;;;;27.36;42.10;99662.69;1814230;77;21536;-69
2021/08/03 07:40:15;;;;;;;3.75;3.45;;;;;;;27.38;41.85;99652.31;1812520;77;21049;-65
2021/08/03 07:42:42;;;;;;;3.70;3.40;;;;;;;27.39;42.30;99658.85;1827337;77;21016;-68
2021/08/03 07:45:09;;;;;;;3.52;3.22;;;;;;;27.43;42.41;99659.11;1822225;77;21063;-70
2021/08/03 07:47:36;;;;;;;3.42;3.22;;;;;;;27.46;42.46;99663.98;1818112;77;21139;-69
2021/08/03 07:50:04;;;;;;;5.08;3.67;;;;;;;27.48;41.58;99661.78;1769824;77;21057;-68
2021/08/03 07:52:32;;;;;;;3.75;3.37;;;;;;;27.47;41.67;99657.44;1823151;77;21088;-69
2021/08/03 07:54:58;;;;;;;3.65;3.20;;;;;;;27.48;42.04;99662.34;1796538;77;21127;-71
2021/08/03 07:57:24;;;;;;;3.27;2.98;;;;;;;27.50;42.38;99653.33;1822783;77;21079;-68
2021/08/03 07:59:52;;;;;;;3.60;3.30;;;;;;;27.54;42.18;99649.73;1827015;77;21017;-66
2021/08/03 08:02:21;;;;;;;3.77;3.35;;;;;;;27.58;42.44;99661.73;1819369;77;21053;-67
2021/08/03 08:04:47;;;;;;;3.85;3.50;;;;;;;27.62;41.93;99659.23;1821942;76;21122;-67
2021/08/03 08:07:14;;;;;;;3.52;3.12;;;;;;;27.63;41.76;99658.16;1824783;76;21103;-73
2021/08/03 08:09:40;;;;;;;2.95;2.60;;;;;;;27.64;41.52;99658.41;1829923;76;21052;-70
2021/08/03 08:12:08;;;;;;;3.55;3.25;;;;;;;27.66;41.44;99660.30;1822894;76;21065;-71
2021/08/03 08:14:35;;;;;;;4.62;2.92;;;;;;;27.68;41.09;99662.22;1829340;76;21548;-70
2021/08/03 08:17:01;;;;;;;3.95;2.70;;;;;;;27.68;40.39;99654.56;1825437;77;21094;-68
2021/08/03 08:19:28;;;;;;;3.25;2.95;;;;;;;27.68;40.54;99650.47;1821326;76;21057;-68
2021/08/03 08:21:55;;;;;;;5.10;3.22;;;;;;;27.70;40.70;99647.74;1830255;76;21068;-67
2021/08/03 08:24:23;;;;;;;3.85;3.55;;;;;;;27.73;40.83;99655.90;1828894;77;21755;-72
2021/08/03 08:26:50;;;;;;;3.52;3.22;;;;;;;27.76;40.57;99648.52;1827608;76;21095;-68
2021/08/03 08:29:19;;;;;;;3.50;3.20;;;;;;;27.74;40.57;99651.53;1818250;77;21115;-73
2021/08/03 08:31:46;;;;;;;4.55;2.77;;;;;;;27.75;40.59;99653.14;1779073;78;22155;-67
2021/08/03 08:34:13;;;;;;;4.22;3.60;;;;;;;27.74;40.59;99643.34;1767839;79;21029;-68
2021/08/03 08:36:40;;;;;;;5.72;3.40;;;;;;;27.74;40.59;99641.98;1764161;79;21138;-65
2021/08/03 08:39:06;;;;;;;3.40;3.02;;;;;;;27.75;40.48;99649.05;1768181;79;21065;-67
2021/08/03 08:41:34;;;;;;;3.62;3.08;;;;;;;27.77;40.35;99650.13;1766400;79;21084;-69
2021/08/03 08:44:02;;;;;;;3.67;2.80;;;;;;;27.75;40.18;99643.59;1770309;79;21137;-69
2021/08/03 08:46:33;;;;;;;3.90;2.90;;;;;;;27.75;40.06;99649.61;1769516;79;21073;-69
2021/08/03 08:49:01;;;;;;;3.17;2.80;;;;;;;27.74;40.10;99641.14;1761782;80;21108;-67
2021/08/03 08:51:29;;;;;;;3.35;3.02;;;;;;;27.76;39.94;99645.79;1774244;79;21029;-67
2021/08/03 08:53:57;;;;;;;4.10;3.30;;;;;;;27.75;39.45;99638.69;1790532;78;21085;-65
2021/08/03 08:56:24;;;;;;;3.35;3.05;;;;;;;27.74;39.43;99638.41;1788646;78;21028;-68
2021/08/03 08:58:50;;;;;;;3.15;2.85;;;;;;;27.74;39.42;99639.77;1787459;78;21083;-70
2021/08/03 09:01:17;;;;;;;3.20;3.00;;;;;;;27.75;39.67;99634.59;1789721;78;21138;-67
2021/08/03 09:03:43;;;;;;;4.42;3.10;;;;;;;27.79;40.11;99631.00;1789731;78;21003;-70
2021/08/03 09:06:10;;;;;;;3.12;2.83;;;;;;;27.85;40.19;99627.68;1765866;79;21175;-69
2021/08/03 09:08:43;;;;;;;3.95;3.30;;;;;;;27.91;40.03;99632.58;1761257;79;21030;-68
2021/08/03 09:11:14;;;;;;;;;;;;;;;27.95;39.29;99631.74;1761110;80;21106;-70
2021/08/03 09:14:04;;;;;;;3.52;2.77;;;;;;;27.99;39.18;99630.06;1786097;78;20188;-70
2021/08/03 09:16:44;;;;;;;3.67;3.37;;;;;;;27.96;39.14;99626.53;1786430;78;21293;-72
2021/08/03 09:19:37;;;;;;;3.12;2.92;;;;;;;28.00;39.01;99634.97;1764713;78;21133;-68
2021/08/03 09:22:21;;;;;;;3.05;2.83;;;;;;;28.03;38.93;99619.39;1772438;79;21558;-66
2021/08/03 09:24:50;;;;;;;3.37;3.02;;;;;;;28.06;38.93;99612.53;1769765;79;21073;-73
2021/08/03 09:27:33;;;;;;;5.37;3.17;;;;;;;28.09;39.37;99611.97;1771360;78;21120;-72
2021/08/03 09:29:59;;;;;;;4.78;2.90;;;;;;;28.16;39.49;99611.06;1766281;78;21036;-73
2021/08/03 09:32:36;;;;;;;2.98;2.75;;;;;;;28.21;39.41;99610.45;1771916;79;21493;-70
2021/08/03 09:35:12;;;;;;;3.33;3.10;;;;;;;28.28;39.06;99605.20;1773193;78;21108;-72
2021/08/03 09:37:41;;;;;;;5.53;3.42;;;;;;;28.34;38.76;99600.78;1775128;79;21599;-74
2021/08/03 09:40:20;;;;;;;3.37;2.90;;;;;;;28.40;38.70;99598.25;1766125;79;21737;-68
2021/08/03 09:43:00;;;;;;;3.30;3.10;;;;;;;28.47;38.36;99592.98;1761817;79;21135;-66
2021/08/03 09:45:29;;;;;;;2.47;2.27;;;;;;;28.53;38.32;99590.48;1766208;78;21090;-69
2021/08/03 09:48:13;;;;;;;3.37;2.95;;;;;;;28.59;37.99;99590.70;1771460;79;21124;-69
2021/08/03 09:51:08;;;;;;;5.03;2.90;;;;;;;28.66;37.99;99594.44;1771071;78;21112;-69
2021/08/03 09:53:52;;;;;;;3.47;3.17;;;;;;;28.70;38.05;99593.55;1772652;79;21991;-72
2021/08/03 09:56:28;;;;;;;5.37;2.87;;;;;;;28.74;37.92;99586.95;1770820;78;21088;-69
2021/08/03 09:59:06;;;;;;;3.52;3.22;;;;;;;28.78;37.94;99586.09;1767738;78;21057;-71
2021/08/03 10:01:40;;;;;;;3.25;2.90;;;;;;;28.81;37.83;99588.78;1781234;78;21508;-69
2021/08/03 10:04:09;;;;;;;3.15;2.80;;;;;;;28.83;37.75;99589.30;1769652;79;21529;-67
2021/08/03 10:06:36;;;;;;;3.02;2.75;;;;;;;28.81;37.71;99585.48;1783751;80;21120;-70
2021/08/03 10:09:05;;;;;;;3.00;2.80;;;;;;;28.80;37.71;99579.78;1777243;80;21545;-70
2021/08/03 10:11:33;;;;;;;3.25;2.58;;;;;;;28.83;37.92;99580.54;1773467;79;21014;-75
2021/08/03 10:14:01;;;;;;;4.17;2.90;;;;;;;28.84;38.01;99581.37;1783676;80;21104;-70
2021/08/03 10:16:27;;;;;;;2.90;2.70;;;;;;;28.88;38.04;99579.67;1787859;78;21069;-69
2021/08/03 10:18:57;;;;;;;3.40;3.10;;;;;;;28.94;38.07;99573.02;1784561;78;21053;-74
2021/08/03 10:21:37;;;;;;;4.47;2.60;;;;;;;29.01;37.82;99579.48;1782518;78;21056;-68
2021/08/03 10:24:30;;;;;;;4.65;2.75;;;;;;;29.08;37.16;99577.20;1784291;78;21048;-70
2021/08/03 10:27:13;;;;;;;3.08;2.87;;;;;;;29.14;37.11;99577.98;1781833;78;21079;-71
2021/08/03 10:29:51;;;;;;;3.00;2.62;;;;;;;29.20;37.43;99580.33;1783391;78;21064;-69
2021/08/03 10:32:42;;;;;;;3.40;3.12;;;;;;;29.25;37.71;99573.98;1780267;80;22273;-71
2021/08/03 10:35:13;;;;;;;3.12;2.87;;;;;;;29.29;37.87;99574.22;1781587;80;21115;-73
2021/08/03 10:38:00;;;;;;;3.45;2.95;;;;;;;29.32;37.73;99579.91;1779271;78;21100;-73
2021/08/03 10:40:50;;;;;;;2.92;2.72;;;;;;;29.33;37.61;99580.16;1782574;78;21037;-70
2021/08/03 10:43:35;;;;;;;5.03;3.10;;;;;;;29.36;37.48;99581.47;1761028;80;21131;-74
2021/08/03 10:46:16;;;;;;;4.17;2.67;;;;;;;29.36;37.03;99574.63;1785941;78;21152;-69
2021/08/03 10:48:43;;;;;;;4.20;2.70;;;;;;;29.38;37.10;99569.14;1787901;78;21190;-70
2021/08/03 10:51:21;;;;;;;4.83;3.20;;;;;;;29.43;37.29;99566.87;1788922;78;21108;-68
2021/08/03 10:54:11;;;;;;;3.52;3.22;;;;;;;29.49;36.89;99571.14;1773902;79;21552;-69
2021/08/03 10:57:00;;;;;;;2.85;2.65;;;;;;;29.55;36.76;99574.08;1780591;79;21074;-68
2021/08/03 10:59:35;;;;;;;2.98;2.40;;;;;;;29.63;36.49;99585.44;1778546;79;22004;-68
2021/08/03 11:02:25;;;;;;;2.98;2.77;;;;;;;29.67;35.84;99585.92;1785821;78;21068;-68
2021/08/03 11:04:56;;;;;;;2.87;2.67;;;;;;;29.70;35.89;99583.94;1766436;80;21090;-68
2021/08/03 11:07:34;;;;;;;2.75;2.55;;;;;;;29.75;35.88;99585.83;1776928;79;21061;-68
2021/08/03 11:10:05;;;;;;;3.10;2.72;;;;;;;29.75;35.43;99586.64;1770950;79;21050;-70
2021/08/03 11:12:45;;;;;;;2.65;2.45;;;;;;;29.75;35.41;99578.42;1769463;80;22174;-69
2021/08/03 11:15:26;;;;;;;3.77;2.55;;;;;;;29.78;35.45;99586.02;1771484;79;21057;-69
2021/08/03 11:17:57;;;;;;;3.10;2.83;;;;;;;29.79;35.31;99583.55;1764060;79;21037;-74
2021/08/03 11:20:45;;;;;;;4.58;3.20;;;;;;;29.80;35.28;99574.77;1773731;78;21085;-64
2021/08/03 11:23:14;;;;;;;3.10;2.67;;;;;;;29.80;36.88;99573.41;1771517;78;21077;-65
2021/08/03 11:25:43;;;;;;;5.22;2.77;;;;;;;29.78;37.73;99572.89;1774831;78;21267;-64
2021/08/03 11:28:21;;;;;;;2.52;2.33;;;;;;;29.77;37.76;99574.02;1779608;78;21068;-65
2021/08/03 11:30:51;;;;;;;4.60;3.10;;;;;;;29.74;36.71;99566.40;1764710;79;21035;-65
2021/08/03 11:33:19;;;;;;;3.50;3.15;;;;;;;29.71;35.79;99571.89;1771457;78;21043;-67
2021/08/03 11:35:46;;;;;;;6.37;2.87;;;;;;;29.70;35.95;99568.08;1785072;78;20985;-65
2021/08/03 11:38:25;;;;;;;4.10;3.17;;;;;;;29.70;36.24;99570.82;1781238;78;21833;-66
2021/08/03 11:40:46;;;;;;;2.83;2.62;;;;;;;29.72;36.07;99572.70;1762126;79;21050;-65
2021/08/03 11:43:13;;;;;;;4.00;2.77;;;;;;;29.76;36.26;99569.64;1775560;78;20980;-65
2021/08/03 11:45:40;;;;;;;3.50;3.22;;;;;;;29.82;36.38;99572.55;1760554;80;21506;-65
2021/08/03 11:48:23;;;;;;;3.30;3.10;;;;;;;29.88;35.70;99565.06;1764416;79;21536;-68
2021/08/03 11:50:49;;;;;;;3.40;3.10;;;;;;;29.94;35.54;99555.09;1764056;79;21112;-66
2021/08/03 11:53:20;;;;;;;3.70;3.30;;;;;;;30.02;35.82;99563.17;1759934;80;21034;-67
2021/08/03 11:55:51;;;;;;;3.85;2.90;;;;;;;30.09;35.25;99565.50;1768490;79;21113;-65